Time;durP1;ratioP1;P1;durP2;ratioP2;P2;SDS_P1;SDS_P2;PMS_P1;PMS_P2;Temp;Humidity;BMP_temperature;BMP_pressure;BME280_temperature;BME280_humidity;BME280_pressure;Samples;Min_cycle;Max_cycle;Signal;HPM_P1;HPM_P2
2023/07/22 00:01:21;;;;;;;4.37;3.63;;;13.30;99.90;;;;;;5047569;28;20233;-58
2023/07/22 00:03:46;;;;;;;3.43;2.73;;;13.30;99.90;;;;;;5050054;28;20554;-57
2023/07/22 00:06:12;;;;;;;5.20;3.30;;;13.20;99.90;;;;;;5043161;28;20171;-58
2023/07/22 00:08:39;;;;;;;5.07;2.93;;;13.20;99.90;;;;;;5042778;28;20540;-58
2023/07/22 00:11:05;;;;;;;5.10;2.97;;;13.20;99.90;;;;;;5042896;28;20210;-58
2023/07/22 00:13:32;;;;;;;5.10;3.00;;;13.10;99.90;;;;;;5045506;28;20437;-56
2023/07/22 00:15:59;;;;;;;3.97;2.77;;;13.10;99.90;;;;;;5050500;28;20540;-58
2023/07/22 00:18:27;;;;;;;5.07;2.93;;;13.10;99.90;;;;;;5046646;28;20458;-59
2023/07/22 00:20:53;;;;;;;5.07;3.00;;;13.10;99.90;;;;;;5046260;28;20445;-58
2023/07/22 00:23:19;;;;;;;5.03;3.80;;;13.10;99.90;;;;;;5046998;28;20437;-58
2023/07/22 00:25:46;;;;;;;6.83;3.00;;;13.10;99.90;;;;;;5037048;28;21083;-57
2023/07/22 00:28:11;;;;;;;4.07;3.10;;;13.10;99.90;;;;;;5043918;28;20835;-57
2023/07/22 00:30:37;;;;;;;5.57;3.27;;;13.10;99.90;;;;;;5047240;28;20548;-56
2023/07/22 00:33:03;;;;;;;4.23;3.07;;;13.00;99.90;;;;;;5046560;28;20175;-55
2023/07/22 00:35:28;;;;;;;7.47;3.40;;;13.10;99.90;;;;;;5036793;28;20652;-57
2023/07/22 00:37:54;;;;;;;3.57;3.00;;;13.00;99.90;;;;;;5031470;28;20200;-57
2023/07/22 00:40:19;;;;;;;3.30;2.73;;;13.00;99.90;;;;;;5039733;28;20186;-60
2023/07/22 00:42:45;;;;;;;3.97;3.03;;;13.00;99.90;;;;;;5039184;28;20176;-58
2023/07/22 00:45:11;;;;;;;4.63;3.10;;;13.00;99.90;;;;;;5043673;28;20183;-57
2023/07/22 00:47:37;;;;;;;6.23;3.03;;;13.00;99.90;;;;;;5044780;28;20202;-58
2023/07/22 00:50:04;;;;;;;4.00;3.03;;;13.00;99.90;;;;;;5038749;28;20201;-57
2023/07/22 00:52:30;;;;;;;4.50;3.33;;;13.10;99.90;;;;;;5036523;28;21022;-59
2023/07/22 00:54:56;;;;;;;6.13;3.40;;;13.10;99.90;;;;;;5032813;28;20509;-57
2023/07/22 00:57:22;;;;;;;4.10;2.87;;;13.00;99.90;;;;;;5034679;28;20203;-58
2023/07/22 00:59:48;;;;;;;3.70;2.93;;;13.00;99.90;;;;;;5043114;28;20179;-56
2023/07/22 01:02:14;;;;;;;8.07;3.53;;;12.90;99.90;;;;;;5044508;28;20413;-58
2023/07/22 01:04:40;;;;;;;6.97;3.33;;;12.90;99.90;;;;;;5049203;28;20406;-59
2023/07/22 01:07:07;;;;;;;4.63;2.93;;;12.90;99.90;;;;;;5045312;28;20280;-57
2023/07/22 01:09:56;;;;;;;4.07;2.80;;;12.90;99.90;;;;;;5041503;28;20518;-57
2023/07/22 01:12:22;;;;;;;3.80;2.93;;;12.90;99.90;;;;;;5046575;28;21105;-59
2023/07/22 01:14:47;;;;;;;3.70;2.90;;;12.90;99.90;;;;;;5039651;28;20434;-58
2023/07/22 01:17:14;;;;;;;13.33;3.13;;;12.90;99.90;;;;;;5043230;28;20222;-56
2023/07/22 01:19:40;;;;;;;6.97;3.40;;;12.90;99.90;;;;;;5040446;28;20798;-58
2023/07/22 01:22:10;;;;;;;6.00;3.07;;;12.90;99.90;;;;;;5048642;28;20445;-57
2023/07/22 01:24:37;;;;;;;4.97;3.30;;;12.90;99.90;;;;;;5041260;28;20521;-57
2023/07/22 01:27:07;;;;;;;4.53;3.20;;;12.90;99.90;;;;;;5044714;28;20450;-56
2023/07/22 01:29:33;;;;;;;4.10;3.70;;;12.90;99.90;;;;;;5041389;28;20437;-57
2023/07/22 01:31:59;;;;;;;5.13;3.43;;;12.90;99.90;;;;;;5046288;28;20456;-58
2023/07/22 01:34:25;;;;;;;7.80;2.80;;;12.90;99.90;;;;;;5045340;28;20236;-59
2023/07/22 01:36:50;;;;;;;8.73;3.43;;;12.80;99.90;;;;;;5039718;28;20797;-62
2023/07/22 01:39:18;;;;;;;3.17;2.80;;;12.80;99.90;;;;;;5044298;28;20199;-57
2023/07/22 01:41:44;;;;;;;4.90;3.00;;;12.80;99.90;;;;;;5045241;28;20198;-57
2023/07/22 01:44:10;;;;;;;4.40;3.03;;;12.80;99.90;;;;;;5038275;28;20977;-58
2023/07/22 01:46:36;;;;;;;4.30;3.50;;;12.80;99.90;;;;;;5040087;28;20187;-58
2023/07/22 01:49:05;;;;;;;5.27;3.30;;;12.80;99.90;;;;;;5043098;28;20517;-58
2023/07/22 01:51:30;;;;;;;4.17;3.40;;;12.80;99.90;;;;;;5045295;28;20195;-57
2023/07/22 01:53:56;;;;;;;7.67;3.37;;;12.70;99.90;;;;;;5043322;28;20430;-55
2023/07/22 01:56:22;;;;;;;7.37;3.03;;;12.70;99.90;;;;;;5048891;28;20171;-57
2023/07/22 01:58:48;;;;;;;9.67;3.63;;;12.70;99.90;;;;;;5037766;28;20429;-57
2023/07/22 02:01:15;;;;;;;2.87;2.57;;;12.60;99.90;;;;;;5045099;28;20499;-57
2023/07/22 02:03:41;;;;;;;4.80;3.40;;;12.60;99.90;;;;;;5031984;28;20179;-57
2023/07/22 02:06:07;;;;;;;3.63;3.17;;;12.60;99.90;;;;;;5037906;28;20445;-57
2023/07/22 02:08:33;;;;;;;7.90;3.40;;;12.60;99.90;;;;;;5041743;28;20206;-56
2023/07/22 02:11:03;;;;;;;8.53;3.30;;;12.70;99.90;;;;;;5044705;28;20198;-58
2023/07/22 02:13:29;;;;;;;3.57;3.10;;;12.70;99.90;;;;;;5042166;28;20973;-58
2023/07/22 02:15:55;;;;;;;5.70;2.53;;;12.70;99.90;;;;;;5041071;28;20433;-57
2023/07/22 02:18:20;;;;;;;5.47;3.03;;;12.70;99.90;;;;;;5040199;28;20198;-57
2023/07/22 02:20:46;;;;;;;4.17;2.40;;;12.80;99.90;;;;;;5039839;28;20217;-56
2023/07/22 02:23:11;;;;;;;6.40;2.63;;;12.70;99.90;;;;;;5035692;28;20171;-56
2023/07/22 02:25:37;;;;;;;4.00;2.57;;;12.80;99.90;;;;;;5038543;28;20579;-57
2023/07/22 02:28:03;;;;;;;4.77;3.03;;;12.80;99.90;;;;;;5042050;28;20201;-55
2023/07/22 02:30:28;;;;;;;3.63;3.23;;;12.80;99.90;;;;;;5044424;28;20207;-58
2023/07/22 02:32:54;;;;;;;3.73;2.60;;;12.70;99.90;;;;;;5043401;28;20175;-57
2023/07/22 02:35:20;;;;;;;8.93;3.30;;;12.70;99.90;;;;;;5047222;28;20574;-59
2023/07/22 02:37:45;;;;;;;3.70;3.20;;;12.60;99.90;;;;;;5035590;28;20202;-54
2023/07/22 02:40:11;;;;;;;4.40;3.43;;;12.70;99.90;;;;;;5040140;28;20175;-58
2023/07/22 02:42:37;;;;;;;5.30;2.90;;;12.60;99.90;;;;;;5048008;28;20175;-58
2023/07/22 02:45:04;;;;;;;10.83;3.57;;;12.50;99.90;;;;;;5040354;28;20187;-56
2023/07/22 02:47:32;;;;;;;4.87;3.40;;;12.40;99.90;;;;;;5034507;28;20460;-55
2023/07/22 02:49:58;;;;;;;5.57;2.97;;;12.40;99.90;;;;;;5042291;28;21141;-57
2023/07/22 02:52:23;;;;;;;5.80;3.30;;;12.30;99.90;;;;;;5039989;28;20976;-57
2023/07/22 02:55:10;;;;;;;4.03;3.10;;;12.30;99.90;;;;;;5045373;28;20192;-58
2023/07/22 02:57:37;;;;;;;11.80;3.70;;;12.20;99.90;;;;;;5030608;28;20554;-58
2023/07/22 03:00:07;;;;;;;4.73;3.27;;;12.20;99.90;;;;;;5027565;28;20438;-56
2023/07/22 03:02:36;;;;;;;4.30;3.20;;;12.20;99.90;;;;;;5033668;28;20433;-57
2023/07/22 03:05:07;;;;;;;4.27;3.60;;;12.20;99.90;;;;;;5040165;28;20453;-56
2023/07/22 03:07:39;;;;;;;5.57;3.60;;;12.10;99.90;;;;;;5033085;28;20450;-54
2023/07/22 03:10:06;;;;;;;9.40;2.70;;;12.10;99.90;;;;;;5046758;28;20461;-58
2023/07/22 03:12:32;;;;;;;3.33;2.80;;;12.10;99.90;;;;;;5044329;28;20437;-54
2023/07/22 03:14:57;;;;;;;6.47;3.30;;;12.10;99.90;;;;;;5038176;28;20429;-57
2023/07/22 03:17:23;;;;;;;5.23;2.90;;;12.10;99.90;;;;;;5047434;28;20496;-59
2023/07/22 03:19:49;;;;;;;4.33;2.67;;;12.00;99.90;;;;;;5047211;28;20176;-59
2023/07/22 03:22:21;;;;;;;8.47;3.07;;;12.00;99.90;;;;;;5046108;28;20171;-52
2023/07/22 03:24:47;;;;;;;4.07;3.40;;;11.90;99.90;;;;;;5048110;28;20171;-56
2023/07/22 03:27:14;;;;;;;7.33;3.43;;;11.90;99.90;;;;;;5051363;28;20498;-57
2023/07/22 03:29:41;;;;;;;7.30;3.10;;;11.90;99.90;;;;;;5042526;28;20206;-57
2023/07/22 03:32:07;;;;;;;5.43;2.57;;;11.90;99.90;;;;;;5038869;28;20470;-57
2023/07/22 03:34:33;;;;;;;4.20;2.90;;;11.80;99.90;;;;;;5046584;28;20512;-56
2023/07/22 03:36:58;;;;;;;7.47;3.27;;;11.80;99.90;;;;;;5040507;28;20537;-55
2023/07/22 03:39:24;;;;;;;3.40;3.00;;;11.80;99.90;;;;;;5040139;28;20445;-57
2023/07/22 03:41:50;;;;;;;9.87;3.73;;;11.80;99.90;;;;;;5042541;28;20179;-57
2023/07/22 03:44:15;;;;;;;4.83;3.00;;;11.70;99.90;;;;;;5045759;28;20212;-56
2023/07/22 03:46:41;;;;;;;4.70;3.17;;;11.70;99.90;;;;;;5040917;28;20213;-57
2023/07/22 03:49:07;;;;;;;8.63;3.43;;;11.70;99.90;;;;;;5046377;28;20186;-58
2023/07/22 03:51:33;;;;;;;9.20;3.30;;;11.70;99.90;;;;;;5043028;28;20203;-54
2023/07/22 03:53:59;;;;;;;8.37;3.30;;;11.70;99.90;;;;;;5043355;28;20179;-58
2023/07/22 03:56:25;;;;;;;6.03;3.10;;;11.60;99.90;;;;;;5042033;28;20941;-57
2023/07/22 03:58:51;;;;;;;4.20;2.77;;;11.60;99.90;;;;;;5044099;28;20183;-57
2023/07/22 04:01:17;;;;;;;5.53;3.23;;;11.60;99.90;;;;;;5034646;28;20179;-56
2023/07/22 04:03:42;;;;;;;4.77;2.87;;;11.60;99.90;;;;;;5043380;28;20579;-58
2023/07/22 04:06:08;;;;;;;4.83;3.30;;;11.60;99.90;;;;;;5044300;28;20186;-57
2023/07/22 04:08:34;;;;;;;4.13;3.00;;;11.60;99.90;;;;;;5035674;28;20290;-55
2023/07/22 04:10:59;;;;;;;5.17;3.27;;;11.60;99.90;;;;;;5040424;28;20611;-58
2023/07/22 04:13:26;;;;;;;4.70;3.00;;;11.50;99.90;;;;;;5040074;28;20175;-57
2023/07/22 04:15:52;;;;;;;4.80;3.30;;;11.60;99.90;;;;;;5037759;28;20184;-58
2023/07/22 04:18:19;;;;;;;6.33;3.10;;;11.50;99.90;;;;;;5032827;28;20446;-54
2023/07/22 04:20:46;;;;;;;4.43;3.00;;;11.50;99.90;;;;;;5041986;28;20441;-57
2023/07/22 04:23:12;;;;;;;5.07;3.20;;;11.50;99.90;;;;;;5042927;28;20427;-58
2023/07/22 04:25:44;;;;;;;3.17;2.57;;;11.60;99.90;;;;;;5043579;28;20435;-56
2023/07/22 04:28:10;;;;;;;8.40;3.63;;;11.60;99.90;;;;;;5042841;28;21103;-58
2023/07/22 04:30:36;;;;;;;10.90;3.40;;;11.60;99.90;;;;;;5047814;28;20449;-56
2023/07/22 04:33:03;;;;;;;4.63;3.17;;;11.60;99.90;;;;;;5044056;28;20203;-56
2023/07/22 04:35:38;;;;;;;3.73;3.33;;;11.60;99.90;;;;;;5047586;28;20432;-57
2023/07/22 04:38:04;;;;;;;7.30;3.03;;;11.60;99.90;;;;;;5043782;28;20499;-57
2023/07/22 04:40:30;;;;;;;4.50;2.83;;;11.60;99.90;;;;;;5040526;28;20542;-57
2023/07/22 04:42:56;;;;;;;3.00;2.70;;;11.60;99.90;;;;;;5040699;28;20563;-58
2023/07/22 04:45:25;;;;;;;5.23;3.57;;;11.60;99.90;;;;;;5044621;28;20462;-57
2023/07/22 04:47:51;;;;;;;3.27;2.60;;;11.60;99.90;;;;;;5041899;28;20450;-57
2023/07/22 04:50:17;;;;;;;11.90;4.10;;;11.70;99.90;;;;;;5037117;28;20461;-56
2023/07/22 04:52:46;;;;;;;5.70;3.03;;;11.70;99.90;;;;;;5043299;28;20180;-58
2023/07/22 04:55:12;;;;;;;7.00;3.50;;;11.80;99.90;;;;;;5033739;28;20456;-57
2023/07/22 04:57:44;;;;;;;3.50;2.93;;;11.80;99.90;;;;;;5044750;28;20538;-58
2023/07/22 05:00:16;;;;;;;7.03;4.13;;;11.80;99.90;;;;;;5040857;28;20953;-56
2023/07/22 05:02:45;;;;;;;7.30;3.97;;;11.80;99.90;;;;;;5040782;28;20436;-57
2023/07/22 05:05:14;;;;;;;6.00;4.03;;;11.80;99.90;;;;;;5044920;28;20587;-57
2023/07/22 05:07:40;;;;;;;6.40;4.30;;;11.90;99.90;;;;;;5047536;28;20453;-53
2023/07/22 05:10:11;;;;;;;6.13;4.10;;;11.90;99.90;;;;;;5033612;28;20429;-57
2023/07/22 05:12:41;;;;;;;7.40;4.43;;;11.90;99.90;;;;;;5033324;28;20184;-57
2023/07/22 05:15:07;;;;;;;10.90;4.00;;;12.00;99.90;;;;;;5046295;28;20438;-56
2023/07/22 05:17:33;;;;;;;6.90;4.70;;;12.00;99.90;;;;;;5045704;28;20817;-55
2023/07/22 05:19:58;;;;;;;4.30;3.20;;;12.10;99.90;;;;;;5042759;28;20433;-57
2023/07/22 05:22:24;;;;;;;5.33;3.70;;;12.10;99.90;;;;;;5040771;28;20253;-57
2023/07/22 05:24:50;;;;;;;5.90;3.93;;;12.10;99.90;;;;;;5036913;28;20238;-58
2023/07/22 05:27:19;;;;;;;4.80;3.20;;;12.20;99.90;;;;;;5040382;28;21189;-57
2023/07/22 05:29:45;;;;;;;4.20;3.73;;;12.20;99.90;;;;;;5039969;28;20240;-57
2023/07/22 05:32:11;;;;;;;5.77;3.60;;;12.30;99.90;;;;;;5040256;28;20965;-57
2023/07/22 05:34:36;;;;;;;6.20;3.43;;;12.40;99.90;;;;;;5038301;28;20179;-58
2023/07/22 05:37:02;;;;;;;5.70;3.80;;;12.40;99.90;;;;;;5045189;28;20191;-56
2023/07/22 05:39:27;;;;;;;7.83;3.63;;;12.50;99.90;;;;;;5043194;28;20202;-57
2023/07/22 05:41:53;;;;;;;5.07;4.43;;;12.60;99.90;;;;;;5039247;28;20275;-56
2023/07/22 05:44:19;;;;;;;18.10;7.73;;;12.70;99.90;;;;;;5042589;28;20266;-59
2023/07/22 05:46:44;;;;;;;16.70;7.50;;;12.70;99.90;;;;;;5043455;28;20677;-57
2023/07/22 05:49:12;;;;;;;6.60;4.80;;;12.80;99.90;;;;;;5036019;28;20179;-59
2023/07/22 05:51:38;;;;;;;7.73;5.30;;;12.90;99.90;;;;;;5036884;28;20191;-59
2023/07/22 05:54:04;;;;;;;6.53;4.20;;;12.90;99.90;;;;;;5032855;28;20433;-58
2023/07/22 05:56:30;;;;;;;10.53;4.80;;;12.90;99.90;;;;;;5039807;28;20186;-59
2023/07/22 05:58:55;;;;;;;17.50;5.90;;;13.00;99.90;;;;;;5039686;28;20425;-60
2023/07/22 06:01:21;;;;;;;9.60;4.33;;;13.10;99.90;;;;;;5038431;28;20550;-60
2023/07/22 06:03:47;;;;;;;7.83;5.07;;;13.10;99.90;;;;;;5040626;28;20183;-57
2023/07/22 06:06:13;;;;;;;6.40;5.00;;;13.20;99.90;;;;;;5039818;28;21107;-59
2023/07/22 06:08:38;;;;;;;7.77;4.90;;;13.20;99.90;;;;;;5037809;28;20210;-60
2023/07/22 06:11:04;;;;;;;11.80;5.17;;;13.30;99.90;;;;;;5029181;28;20743;-59
2023/07/22 06:13:29;;;;;;;8.70;4.40;;;13.40;99.90;;;;;;5039505;28;20194;-58
2023/07/22 06:15:55;;;;;;;6.93;5.10;;;13.40;99.90;;;;;;5037240;28;20178;-59
2023/07/22 06:18:20;;;;;;;9.37;4.80;;;13.50;99.90;;;;;;5042127;28;20699;-59
2023/07/22 06:20:46;;;;;;;6.50;4.37;;;13.50;99.90;;;;;;5040217;28;20262;-58
2023/07/22 06:23:12;;;;;;;8.40;4.43;;;13.60;99.90;;;;;;5036491;28;20632;-57
2023/07/22 06:25:37;;;;;;;5.63;4.10;;;13.70;99.90;;;;;;5037266;28;20297;-58
2023/07/22 06:28:04;;;;;;;8.77;5.77;;;13.70;99.90;;;;;;5040757;28;20206;-57
2023/07/22 06:30:29;;;;;;;10.10;6.80;;;13.80;99.90;;;;;;5030732;28;20195;-58
2023/07/22 06:32:55;;;;;;;11.53;6.53;;;13.90;99.90;;;;;;5036528;28;20433;-54
2023/07/22 06:35:21;;;;;;;12.60;6.77;;;14.00;99.90;;;;;;5043443;28;20171;-58
2023/07/22 06:37:46;;;;;;;11.33;6.80;;;14.10;99.90;;;;;;5036233;28;20195;-57
2023/07/22 06:40:12;;;;;;;10.93;6.00;;;14.20;99.90;;;;;;5032723;28;20266;-54
2023/07/22 06:42:38;;;;;;;10.53;5.80;;;14.30;99.90;;;;;;5042416;28;20175;-59
2023/07/22 06:45:04;;;;;;;11.30;6.53;;;14.40;99.90;;;;;;5044059;28;20197;-57
2023/07/22 06:47:30;;;;;;;8.80;6.03;;;14.50;99.90;;;;;;5042179;28;20637;-59
2023/07/22 06:49:55;;;;;;;12.83;6.53;;;14.60;99.90;;;;;;5039273;28;20481;-58
2023/07/22 06:52:21;;;;;;;11.80;5.47;;;14.70;99.90;;;;;;5036481;28;20183;-59
2023/07/22 06:54:46;;;;;;;14.73;5.30;;;14.80;99.90;;;;;;5036752;28;20178;-58
2023/07/22 06:57:12;;;;;;;6.93;5.40;;;14.90;99.90;;;;;;5045638;28;20187;-59
2023/07/22 06:59:38;;;;;;;10.20;6.20;;;15.00;99.90;;;;;;5034217;28;20254;-59
2023/07/22 07:02:07;;;;;;;11.87;6.60;;;15.20;99.90;;;;;;5042107;28;20213;-55
2023/07/22 07:04:33;;;;;;;10.13;6.60;;;15.30;99.90;;;;;;5035508;28;20232;-53
2023/07/22 07:06:59;;;;;;;12.07;7.20;;;15.40;99.90;;;;;;5037439;28;20446;-54
2023/07/22 07:09:25;;;;;;;10.77;6.40;;;15.50;99.90;;;;;;5035568;28;20524;-56
2023/07/22 07:11:51;;;;;;;15.90;6.27;;;15.60;99.90;;;;;;5037164;28;20208;-56
2023/07/22 07:14:17;;;;;;;9.97;5.87;;;15.70;99.90;;;;;;5043965;28;20190;-52
2023/07/22 07:16:43;;;;;;;9.90;5.90;;;15.90;99.90;;;;;;5038745;28;20452;-53
2023/07/22 07:19:10;;;;;;;8.43;5.77;;;16.00;99.90;;;;;;5043689;28;20444;-54
2023/07/22 07:21:35;;;;;;;8.30;4.50;;;16.10;99.90;;;;;;5033782;28;20429;-52
2023/07/22 07:24:01;;;;;;;7.43;4.57;;;16.20;99.90;;;;;;5040449;28;21159;-54
2023/07/22 07:26:27;;;;;;;8.80;4.80;;;16.30;99.90;;;;;;5046229;28;20213;-55
2023/07/22 07:28:53;;;;;;;11.30;3.97;;;16.40;99.90;;;;;;5039362;28;20436;-54
2023/07/22 07:31:19;;;;;;;9.50;4.70;;;16.60;99.70;;;;;;5038652;28;20457;-55
2023/07/22 07:33:44;;;;;;;5.77;3.70;;;16.70;99.90;;;;;;5038624;28;20172;-54
2023/07/22 07:36:10;;;;;;;6.37;3.70;;;16.90;98.30;;;;;;5041997;28;20167;-54
2023/07/22 07:38:36;;;;;;;7.63;3.93;;;17.10;94.80;;;;;;5040356;28;20208;-54
2023/07/22 07:41:11;;;;;;;4.77;3.90;;;17.20;93.80;;;;;;5037680;28;20663;-54
2023/07/22 07:43:37;;;;;;;6.87;4.20;;;17.30;93.30;;;;;;5043513;28;20186;-57
2023/07/22 07:46:17;;;;;;;7.73;4.67;;;17.50;92.90;;;;;;5034706;28;20425;-55
2023/07/22 07:48:44;;;;;;;7.80;4.10;;;17.70;86.50;;;;;;5037730;28;20206;-56
2023/07/22 07:51:10;;;;;;;7.40;4.13;;;17.80;83.90;;;;;;5030293;28;20507;-59
2023/07/22 07:53:35;;;;;;;7.40;2.90;;;17.90;83.00;;;;;;5037078;28;21126;-55
2023/07/22 07:56:01;;;;;;;6.53;2.27;;;18.00;70.80;;;;;;5031840;28;20177;-54
2023/07/22 07:58:27;;;;;;;2.70;2.10;;;18.10;68.80;;;;;;5042969;28;20278;-57
2023/07/22 08:00:52;;;;;;;2.50;2.17;;;18.30;65.90;;;;;;5025349;28;20562;-54
2023/07/22 08:03:18;;;;;;;3.40;2.07;;;18.40;62.20;;;;;;5030569;28;20175;-58
2023/07/22 08:05:43;;;;;;;2.47;2.03;;;18.60;62.20;;;;;;5030108;28;20725;-59
2023/07/22 08:08:10;;;;;;;25.00;2.80;;;18.70;59.60;;;;;;5030192;28;20226;-55
2023/07/22 08:10:36;;;;;;;2.80;2.23;;;18.80;58.90;;;;;;5033529;28;20210;-60
2023/07/22 08:13:02;;;;;;;2.83;2.20;;;18.80;58.50;;;;;;5032977;28;20520;-56
2023/07/22 08:15:28;;;;;;;2.37;2.17;;;18.80;57.60;;;;;;5041918;28;20842;-58
2023/07/22 08:17:53;;;;;;;4.23;2.43;;;18.80;57.40;;;;;;5041068;28;20609;-58
2023/07/22 08:20:19;;;;;;;1.80;1.70;;;18.90;56.10;;;;;;5039471;28;20218;-57
2023/07/22 08:22:44;;;;;;;3.00;1.77;;;19.10;56.40;;;;;;5041723;28;20183;-58
2023/07/22 08:25:10;;;;;;;2.93;1.97;;;19.20;56.90;;;;;;5030667;28;20205;-59
2023/07/22 08:27:36;;;;;;;3.27;2.53;;;19.30;56.90;;;;;;5031182;28;20198;-59
2023/07/22 08:30:01;;;;;;;3.90;2.53;;;19.40;56.60;;;;;;5036233;28;20222;-60
2023/07/22 08:32:27;;;;;;;2.83;2.30;;;19.60;56.20;;;;;;5042180;28;20176;-60
2023/07/22 08:34:52;;;;;;;4.30;2.23;;;19.70;55.50;;;;;;5040760;28;20617;-58
2023/07/22 08:37:18;;;;;;;2.97;2.23;;;19.80;54.90;;;;;;5030609;28;20250;-58
2023/07/22 08:39:44;;;;;;;2.90;2.27;;;19.90;54.70;;;;;;5040873;28;20254;-59
2023/07/22 08:42:11;;;;;;;3.10;2.80;;;20.00;55.10;;;;;;5036777;28;20278;-59
2023/07/22 08:44:41;;;;;;;3.70;2.80;;;20.10;54.20;;;;;;5032243;28;20551;-60
2023/07/22 08:47:10;;;;;;;2.50;2.30;;;20.20;55.10;;;;;;5035010;28;21000;-59
2023/07/22 08:49:35;;;;;;;2.20;2.00;;;20.40;55.40;;;;;;5036089;28;20472;-61
2023/07/22 08:52:01;;;;;;;3.80;2.07;;;20.50;53.20;;;;;;5039431;28;20556;-59
2023/07/22 08:54:28;;;;;;;1.93;1.73;;;20.40;51.30;;;;;;5035844;28;20175;-59
2023/07/22 08:56:54;;;;;;;2.10;1.90;;;20.20;51.30;;;;;;5037825;28;20205;-58
2023/07/22 08:59:19;;;;;;;2.40;2.17;;;20.20;52.50;;;;;;5032864;28;20437;-60
2023/07/22 09:01:47;;;;;;;4.07;2.60;;;20.20;51.60;;;;;;5038485;28;20575;-59
2023/07/22 09:04:13;;;;;;;6.00;2.20;;;20.20;51.80;;;;;;5033612;28;20266;-60
2023/07/22 09:06:41;;;;;;;2.53;2.30;;;20.30;50.70;;;;;;5037664;28;21163;-60
2023/07/22 09:09:08;;;;;;;4.40;2.20;;;20.40;50.90;;;;;;5029204;28;20687;-59
2023/07/22 09:11:34;;;;;;;3.50;2.30;;;20.30;50.50;;;;;;5040023;28;20477;-60
2023/07/22 09:14:02;;;;;;;2.20;2.00;;;20.20;51.20;;;;;;5041945;28;20450;-60
2023/07/22 09:16:29;;;;;;;2.57;2.10;;;20.20;51.40;;;;;;5026846;28;20950;-60
2023/07/22 09:18:57;;;;;;;1.80;1.70;;;20.20;51.50;;;;;;5032530;28;20467;-61
2023/07/22 09:21:22;;;;;;;3.10;2.07;;;20.20;50.50;;;;;;5029163;28;20961;-61
2023/07/22 09:23:48;;;;;;;3.40;2.13;;;20.40;50.10;;;;;;5027755;28;20439;-59
2023/07/22 09:26:16;;;;;;;2.50;2.00;;;20.50;50.10;;;;;;5022032;28;20763;-58
2023/07/22 09:28:49;;;;;;;2.50;1.90;;;20.70;49.30;;;;;;5022364;28;20214;-60
2023/07/22 09:31:15;;;;;;;3.90;1.90;;;20.90;48.90;;;;;;5025984;28;20459;-60
2023/07/22 09:33:40;;;;;;;3.03;1.80;;;20.90;48.20;;;;;;5028447;28;20440;-58
2023/07/22 09:36:06;;;;;;;2.70;2.13;;;21.00;48.30;;;;;;5031384;28;20187;-59
2023/07/22 09:38:32;;;;;;;7.27;2.40;;;21.10;48.00;;;;;;5035436;28;20230;-60
2023/07/22 09:40:57;;;;;;;2.10;1.90;;;21.20;47.80;;;;;;5034475;28;20183;-62
2023/07/22 09:43:23;;;;;;;2.97;2.17;;;21.20;47.60;;;;;;5033251;28;20236;-64
2023/07/22 09:45:49;;;;;;;3.00;2.20;;;21.30;47.80;;;;;;5036935;28;20610;-63
2023/07/22 09:48:15;;;;;;;2.20;1.90;;;21.30;47.00;;;;;;5028501;28;20533;-61
2023/07/22 09:50:41;;;;;;;2.90;2.10;;;21.40;47.80;;;;;;5028912;28;20195;-59
2023/07/22 09:53:06;;;;;;;5.33;1.90;;;21.60;49.00;;;;;;5020040;28;20258;-59
2023/07/22 09:55:33;;;;;;;3.43;2.33;;;21.70;49.10;;;;;;5039676;28;20167;-59
2023/07/22 09:58:05;;;;;;;3.40;2.20;;;21.90;49.20;;;;;;5046974;28;20507;-60
2023/07/22 10:00:32;;;;;;;2.70;2.30;;;22.10;48.20;;;;;;5040117;28;20489;-60
2023/07/22 10:02:59;;;;;;;2.30;2.10;;;22.20;48.50;;;;;;5037570;28;20429;-60
2023/07/22 10:05:26;;;;;;;2.57;1.93;;;22.20;48.10;;;;;;5045496;28;20429;-59
2023/07/22 10:07:54;;;;;;;3.20;2.20;;;22.10;48.00;;;;;;5034875;28;20477;-59
2023/07/22 10:10:34;;;;;;;4.60;2.47;;;22.20;48.90;;;;;;5041124;28;20595;-60
2023/07/22 10:13:01;;;;;;;2.90;2.20;;;22.30;48.00;;;;;;5045353;28;20448;-59
2023/07/22 10:15:30;;;;;;;4.00;2.60;;;22.50;47.20;;;;;;5048540;28;20930;-60
2023/07/22 10:17:56;;;;;;;3.23;1.90;;;22.50;48.50;;;;;;5044403;28;21285;-59
2023/07/22 10:20:23;;;;;;;3.53;2.30;;;22.70;47.70;;;;;;5044189;28;20457;-60
2023/07/22 10:22:49;;;;;;;3.83;2.40;;;22.70;47.40;;;;;;5041826;28;20430;-59
2023/07/22 10:25:19;;;;;;;3.00;2.37;;;22.90;46.00;;;;;;5049242;28;20452;-58
2023/07/22 10:27:46;;;;;;;3.17;2.20;;;22.90;45.80;;;;;;5039086;28;20532;-59
2023/07/22 10:30:13;;;;;;;8.57;2.17;;;22.90;46.80;;;;;;5043345;28;21402;-60
2023/07/22 10:32:44;;;;;;;3.87;2.13;;;23.00;46.10;;;;;;5038262;28;20421;-59
2023/07/22 10:35:29;;;;;;;2.37;2.17;;;23.00;45.00;;;;;;5046620;28;20413;-61
2023/07/22 10:37:55;;;;;;;2.60;1.77;;;23.00;45.60;;;;;;5045296;28;20615;-61
2023/07/22 10:40:28;;;;;;;9.20;2.87;;;23.10;44.50;;;;;;5044390;28;21033;-60
2023/07/22 10:42:54;;;;;;;8.43;2.70;;;23.20;44.70;;;;;;5043486;28;20217;-60
2023/07/22 10:45:28;;;;;;;7.00;3.13;;;23.40;45.50;;;;;;5034802;28;20434;-60
2023/07/22 10:48:11;;;;;;;13.13;2.27;;;23.60;45.10;;;;;;5038013;28;20195;-60
2023/07/22 10:50:47;;;;;;;4.37;2.80;;;23.70;44.30;;;;;;5032945;28;20501;-59
2023/07/22 10:53:23;;;;;;;3.03;1.90;;;23.40;43.50;;;;;;5039012;28;20848;-61
2023/07/22 10:56:14;;;;;;;4.17;2.60;;;22.90;43.50;;;;;;5047958;28;20441;-60
2023/07/22 10:58:48;;;;;;;7.10;2.10;;;22.50;44.80;;;;;;5040487;28;20430;-61
2023/07/22 11:01:28;;;;;;;5.13;2.73;;;22.30;45.60;;;;;;5039479;28;20948;-60
2023/07/22 11:04:12;;;;;;;4.13;2.27;;;22.30;45.80;;;;;;5040545;28;21104;-60
2023/07/22 11:06:44;;;;;;;2.27;2.07;;;22.50;46.30;;;;;;5038006;28;20441;-62
2023/07/22 11:09:27;;;;;;;2.73;2.40;;;22.40;45.00;;;;;;5043796;28;20489;-62
2023/07/22 11:12:04;;;;;;;4.37;2.33;;;22.10;46.00;;;;;;5040029;28;20944;-60
2023/07/22 11:14:32;;;;;;;4.47;2.20;;;22.00;45.80;;;;;;5033181;28;20460;-60
2023/07/22 11:17:00;;;;;;;2.83;2.07;;;21.90;45.80;;;;;;5044447;28;20464;-61
2023/07/22 11:19:27;;;;;;;3.00;1.90;;;21.80;45.10;;;;;;5039621;28;20571;-61
2023/07/22 11:21:54;;;;;;;2.23;2.00;;;21.70;45.20;;;;;;5036537;28;20450;-60
2023/07/22 11:24:21;;;;;;;4.00;2.50;;;21.90;45.00;;;;;;5036478;28;20467;-61
2023/07/22 11:26:47;;;;;;;6.93;2.30;;;22.10;44.50;;;;;;5043366;28;20433;-60
2023/07/22 11:29:14;;;;;;;4.20;2.20;;;22.30;45.40;;;;;;5034428;28;20444;-61
2023/07/22 11:31:42;;;;;;;3.57;2.37;;;22.60;44.20;;;;;;5041889;28;20993;-61
2023/07/22 11:34:15;;;;;;;3.07;2.07;;;22.90;44.40;;;;;;5050978;28;20410;-59
2023/07/22 11:36:41;;;;;;;2.70;2.27;;;23.20;43.10;;;;;;5038208;28;20430;-61
2023/07/22 11:39:13;;;;;;;2.30;2.10;;;23.50;43.70;;;;;;5041934;28;20437;-62
2023/07/22 11:41:41;;;;;;;4.50;2.10;;;23.70;43.00;;;;;;5040602;28;20477;-60
2023/07/22 11:44:09;;;;;;;4.77;2.43;;;23.90;44.50;;;;;;5031987;28;20432;-61
2023/07/22 11:46:36;;;;;;;4.80;2.40;;;24.10;41.90;;;;;;5031189;28;21068;-61
2023/07/22 11:49:02;;;;;;;2.50;2.20;;;24.30;42.00;;;;;;5029782;28;20456;-61
2023/07/22 11:51:28;;;;;;;3.40;2.40;;;24.20;41.30;;;;;;5042694;28;20819;-61
2023/07/22 11:53:54;;;;;;;2.20;2.00;;;24.00;41.40;;;;;;5031047;28;20926;-63
2023/07/22 11:56:20;;;;;;;3.47;2.50;;;24.00;40.40;;;;;;5031695;28;20187;-62
2023/07/22 11:58:52;;;;;;;7.90;2.60;;;24.20;37.30;;;;;;5024389;28;20455;-61
2023/07/22 12:01:18;;;;;;;4.27;2.30;;;24.20;39.50;;;;;;5022136;28;21085;-58
2023/07/22 12:03:44;;;;;;;3.60;2.30;;;24.10;39.30;;;;;;5023257;28;20445;-60
2023/07/22 12:06:10;;;;;;;3.20;2.23;;;24.20;40.10;;;;;;5031682;28;20434;-61
2023/07/22 12:08:42;;;;;;;4.37;2.60;;;24.10;39.00;;;;;;5028766;28;20211;-61
2023/07/22 12:11:08;;;;;;;3.80;2.57;;;24.00;39.80;;;;;;5034993;28;20500;-62
2023/07/22 12:13:37;;;;;;;3.90;2.30;;;24.00;38.80;;;;;;5030347;28;20426;-60
2023/07/22 12:16:05;;;;;;;4.43;2.70;;;24.20;39.40;;;;;;5028466;28;20454;-60
2023/07/22 12:18:46;;;;;;;4.90;3.00;;;24.40;39.10;;;;;;5025673;28;20472;-62
2023/07/22 12:21:13;;;;;;;3.47;2.97;;;24.70;38.70;;;;;;5039546;28;20473;-62
2023/07/22 12:23:41;;;;;;;5.17;2.50;;;25.00;37.50;;;;;;5034710;28;22710;-60
2023/07/22 12:26:06;;;;;;;3.40;2.60;;;25.20;37.40;;;;;;5034540;28;20438;-59
2023/07/22 12:28:32;;;;;;;3.07;2.40;;;25.40;37.80;;;;;;5030865;28;20465;-61
2023/07/22 12:30:58;;;;;;;4.03;2.63;;;25.60;38.60;;;;;;5038186;28;20203;-61
2023/07/22 12:33:24;;;;;;;4.60;2.83;;;25.70;36.60;;;;;;5033833;28;20430;-61
2023/07/22 12:35:51;;;;;;;7.33;2.87;;;25.70;36.30;;;;;;5032185;28;20881;-60
2023/07/22 12:38:17;;;;;;;5.83;3.13;;;25.70;37.10;;;;;;5033221;28;20510;-60
2023/07/22 12:40:42;;;;;;;5.00;2.80;;;25.90;36.00;;;;;;5036554;28;20485;-61
2023/07/22 12:43:08;;;;;;;3.47;2.90;;;26.00;35.50;;;;;;5034929;28;20170;-60
2023/07/22 12:45:34;;;;;;;2.80;2.20;;;26.00;36.00;;;;;;5037759;28;20187;-59